createdAt,value
2017-09-02T00:03:51.771Z,47.2
2017-09-02T00:08:57.180Z,47.2
2017-09-02T00:14:02.589Z,47.2
2017-09-02T00:19:08.333Z,47.2
2017-09-02T00:24:14.081Z,47.1
2017-09-02T00:29:19.492Z,47.2
2017-09-02T00:34:25.232Z,47.2
2017-09-02T00:39:30.640Z,47.3
2017-09-02T00:44:36.718Z,47.2
2017-09-02T00:49:42.462Z,47.2
2017-09-02T00:54:47.545Z,47.2
2017-09-02T00:59:52.952Z,47.3
2017-09-02T01:04:58.359Z,47.3
2017-09-02T01:10:03.770Z,47.3
2017-09-02T01:15:08.531Z,47.3
2017-09-02T01:20:13.597Z,47.3
2017-09-02T01:25:18.683Z,47.3
2017-09-02T01:30:24.100Z,47.4
2017-09-02T01:35:29.539Z,47.4
2017-09-02T01:40:35.287Z,47.4
2017-09-02T01:45:40.029Z,47.3
2017-09-02T01:50:45.766Z,47.3
2017-09-02T01:55:50.836Z,47.3
2017-09-02T02:00:55.239Z,47.2
2017-09-02T02:06:00.983Z,47.2
2017-09-02T02:11:06.053Z,47.2
2017-09-02T02:16:11.464Z,47.2
2017-09-02T02:21:16.534Z,47.2
2017-09-02T02:26:20.938Z,47.2
2017-09-02T02:31:26.012Z,47.2
2017-09-02T02:36:31.080Z,47.2
2017-09-02T02:41:36.148Z,47.3
2017-09-02T02:46:41.219Z,47.3
2017-09-02T02:51:46.291Z,47.3
2017-09-02T02:56:52.371Z,47.3
2017-09-02T03:01:57.778Z,47.4
2017-09-02T03:07:03.182Z,47.4
2017-09-02T03:12:08.252Z,47.4
2017-09-02T03:17:13.661Z,47.4
2017-09-02T03:22:19.397Z,47.3
2017-09-02T03:27:24.474Z,47.4
2017-09-02T03:32:29.879Z,47.3
2017-09-02T03:37:34.614Z,47.3
2017-09-02T03:42:40.021Z,47.3
2017-09-02T03:47:45.768Z,47.3
2017-09-02T03:52:51.508Z,47.2
2017-09-02T03:57:56.906Z,47.2
2017-09-02T04:03:02.310Z,47.1
2017-09-02T04:08:07.716Z,47.1
2017-09-02T04:13:12.789Z,47.1
2017-09-02T04:18:18.218Z,47.1
2017-09-02T04:23:23.605Z,47.1
2017-09-02T04:28:28.006Z,47.1
2017-09-02T04:33:33.410Z,47.1
2017-09-02T04:38:38.145Z,47
2017-09-02T04:43:43.219Z,47
2017-09-02T04:48:47.958Z,47
2017-09-02T04:53:53.364Z,46.9
2017-09-02T04:58:58.101Z,47
2017-09-02T05:04:03.189Z,46.9
2017-09-02T05:09:08.262Z,46.9
2017-09-02T05:14:13.667Z,46.9
2017-09-02T05:19:19.407Z,46.9
2017-09-02T05:24:25.491Z,46.9
2017-09-02T05:29:31.235Z,46.9
2017-09-02T05:34:36.638Z,46.8
2017-09-02T05:39:41.708Z,46.7
2017-09-02T05:44:47.451Z,46.7
2017-09-02T05:49:53.194Z,46.8
2017-09-02T05:54:58.602Z,46.7
2017-09-02T06:00:03.673Z,46.6
2017-09-02T06:05:08.744Z,46.6
2017-09-02T06:10:14.152Z,46.6
2017-09-02T06:15:19.560Z,46.6
2017-09-02T06:20:24.295Z,46.6
2017-09-02T06:25:28.698Z,46.6
2017-09-02T06:30:34.441Z,46.5
2017-09-02T06:35:40.390Z,46.3
2017-09-02T06:40:46.137Z,46
2017-09-02T06:45:51.213Z,45.8
2017-09-02T06:50:56.314Z,45.6
2017-09-02T06:56:02.055Z,45.3
2017-09-02T07:01:07.799Z,45.3
2017-09-02T07:06:12.562Z,45.3
2017-09-02T07:11:17.638Z,45.1
2017-09-02T07:16:22.714Z,44.8
2017-09-02T07:21:27.462Z,44.5
2017-09-02T07:26:32.880Z,43.9
2017-09-02T07:31:37.621Z,43.4
2017-09-02T07:36:42.707Z,42.7
2017-09-02T07:41:48.796Z,42.2
2017-09-02T07:46:54.211Z,41.7
2017-09-02T07:51:59.962Z,41
2017-09-02T07:57:05.710Z,40.6
2017-09-02T08:02:10.455Z,40.1
2017-09-02T08:07:15.541Z,40
2017-09-02T08:12:21.363Z,39.5
2017-09-02T08:17:26.127Z,39.1
2017-09-02T08:22:31.551Z,38.3
2017-09-02T08:27:36.984Z,37.9
2017-09-02T08:32:42.084Z,37.2
2017-09-02T08:37:47.181Z,36.4
2017-09-02T08:42:52.615Z,35.8
2017-09-02T08:47:58.050Z,35.2
2017-09-02T08:53:02.818Z,35.2
2017-09-02T08:58:08.582Z,35.8
2017-09-02T09:03:13.677Z,36.1
2017-09-02T09:08:18.444Z,36.3
2017-09-02T09:13:23.948Z,36.5
2017-09-02T09:18:29.383Z,36.6
2017-09-02T09:23:34.808Z,36.9
2017-09-02T09:28:40.235Z,37.5
2017-09-02T09:33:45.661Z,38
2017-09-02T09:38:50.753Z,38.6
2017-09-02T09:43:56.180Z,38.9
2017-09-02T09:49:01.940Z,38.5
2017-09-02T09:54:07.280Z,38.8
2017-09-02T09:59:12.033Z,39.4
2017-09-02T10:04:17.111Z,40
2017-09-02T10:09:23.201Z,40.1
2017-09-02T10:14:28.955Z,39.6
2017-09-02T10:19:34.382Z,39.2
2017-09-02T10:24:40.133Z,39.1
2017-09-02T10:29:44.885Z,39.5
2017-09-02T10:34:49.636Z,39.9
2017-09-02T10:39:54.720Z,40.4
2017-09-02T10:45:00.141Z,40.6
2017-09-02T10:50:06.233Z,40.8
2017-09-02T10:55:12.310Z,41
2017-09-02T11:00:17.744Z,41.2
2017-09-02T11:05:22.162Z,41.4
2017-09-02T11:10:27.577Z,41.5
2017-09-02T11:15:32.651Z,41.6
2017-09-02T11:20:37.742Z,41.7
2017-09-02T11:25:43.183Z,41.2
2017-09-02T11:30:49.711Z,41.1
2017-09-02T11:35:54.452Z,41
2017-09-02T11:40:59.888Z,39.9
2017-09-02T11:46:05.291Z,38.9
2017-09-02T11:51:10.713Z,40.3
2017-09-02T11:56:16.471Z,38.5
2017-09-02T12:01:21.947Z,39.9
2017-09-02T12:06:27.390Z,35.4
2017-09-02T12:11:32.230Z,34.5
2017-09-02T12:16:37.695Z,34.4
2017-09-02T12:21:43.508Z,33.4
2017-09-02T12:26:49.670Z,34
2017-09-02T12:31:54.785Z,33.5
2017-09-02T12:36:58.888Z,33.3
2017-09-02T12:42:04.324Z,33.9
2017-09-02T12:47:09.422Z,33.9
2017-09-02T12:52:14.182Z,34.4
2017-09-02T12:57:19.935Z,34.7
2017-09-02T13:02:25.904Z,34.8
2017-09-02T13:07:30.650Z,34
2017-09-02T13:12:36.079Z,33.7
2017-09-02T13:17:41.831Z,33.2
2017-09-02T13:22:47.577Z,33.9
2017-09-02T13:27:52.992Z,34.4
2017-09-02T13:32:58.404Z,35.3
2017-09-02T13:38:03.821Z,35.3
2017-09-02T13:43:08.983Z,35.1
2017-09-02T13:48:14.800Z,35.5
2017-09-02T13:53:20.231Z,35.5
2017-09-02T13:58:25.976Z,35.6
2017-09-02T14:03:31.051Z,35.7
2017-09-02T14:08:36.458Z,35.6
2017-09-02T14:13:41.878Z,35.8
2017-09-02T14:18:47.293Z,35.7
2017-09-02T14:23:53.044Z,35.8
2017-09-02T14:28:58.452Z,35.9
2017-09-02T14:34:03.859Z,35.8
2017-09-02T14:39:08.953Z,36.1
2017-09-02T14:44:14.029Z,36.4
2017-09-02T14:49:19.486Z,36
2017-09-02T14:54:24.566Z,34.9
2017-09-02T14:59:28.982Z,34.6
2017-09-02T15:04:34.058Z,34.1
2017-09-02T15:09:39.810Z,34.2
2017-09-02T15:14:45.311Z,35
2017-09-02T15:19:50.993Z,35.8
2017-09-02T15:24:56.762Z,36
2017-09-02T15:30:02.511Z,36.2
2017-09-02T15:35:07.313Z,36
2017-09-02T15:40:12.753Z,37.1
2017-09-02T15:45:18.164Z,37.4
2017-09-02T15:50:23.922Z,37.5
2017-09-02T15:55:28.658Z,37.5
2017-09-02T16:00:34.090Z,37.5
2017-09-02T16:05:39.166Z,37.5
2017-09-02T16:10:43.901Z,37.5
2017-09-02T16:15:49.311Z,37.6
2017-09-02T16:20:55.059Z,37.5
2017-09-02T16:26:00.466Z,37.5
2017-09-02T16:31:05.542Z,38
2017-09-02T16:36:11.286Z,38.3
2017-09-02T16:41:16.383Z,38.3
2017-09-02T16:46:21.790Z,36.9
2017-09-02T16:51:27.422Z,37.2
2017-09-02T16:56:32.520Z,36.9
2017-09-02T17:01:37.583Z,37.2
2017-09-02T17:06:43.317Z,37.7
2017-09-02T17:11:48.729Z,38.3
2017-09-02T17:16:54.136Z,39.4
2017-09-02T17:21:59.542Z,40.1
2017-09-02T17:27:04.953Z,40.8
2017-09-02T17:32:10.361Z,40.8
2017-09-02T17:37:15.771Z,40.8
2017-09-02T17:42:21.173Z,40.9
2017-09-02T17:47:25.915Z,41.6
2017-09-02T17:52:31.322Z,41.5
2017-09-02T17:57:36.731Z,41.4
2017-09-02T18:02:41.470Z,41.4
2017-09-02T18:07:46.538Z,41.1
2017-09-02T18:12:52.282Z,40.9
2017-09-02T18:17:57.747Z,40.5
2017-09-02T18:23:02.817Z,40.6
2017-09-02T18:28:07.565Z,40.5
2017-09-02T18:33:12.640Z,40.8
2017-09-02T18:38:17.052Z,41
2017-09-02T18:43:21.796Z,41.1
2017-09-02T18:48:27.555Z,41.3
2017-09-02T18:53:32.973Z,41.6
2017-09-02T18:58:38.714Z,41.7
2017-09-02T19:03:43.785Z,42.2
2017-09-02T19:08:49.530Z,42.7
2017-09-02T19:13:54.604Z,43.1
2017-09-02T19:18:59.014Z,43.8
2017-09-02T19:24:03.752Z,44.2
2017-09-02T19:29:09.162Z,44.3
2017-09-02T19:34:14.242Z,44.2
2017-09-02T19:39:19.329Z,44.6
2017-09-02T19:44:24.410Z,44.7
2017-09-02T19:49:29.490Z,44.7
2017-09-02T19:54:34.912Z,44.3
2017-09-02T19:59:39.313Z,44.5
2017-09-02T20:04:45.061Z,44.4
2017-09-02T20:09:49.802Z,44.6
2017-09-02T20:14:54.955Z,44.9
2017-09-02T20:20:00.048Z,45.1
2017-09-02T20:25:05.465Z,45
2017-09-02T20:30:10.210Z,44.9
2017-09-02T20:35:15.300Z,44.8
2017-09-02T20:40:21.049Z,44.7
2017-09-02T20:45:26.470Z,44.7
2017-09-02T20:50:31.884Z,44.6
2017-09-02T20:55:36.629Z,44.7
2017-09-02T21:00:41.381Z,44.6
2017-09-02T21:05:46.793Z,44.6
2017-09-02T21:10:51.553Z,44.6
2017-09-02T21:15:57.636Z,45
2017-09-02T21:21:02.039Z,45
2017-09-02T21:26:07.280Z,44.9
2017-09-02T21:31:12.046Z,44.7
2017-09-02T21:36:17.126Z,44.5
2017-09-02T21:41:22.539Z,44.5
2017-09-02T21:46:26.952Z,44.5
2017-09-02T21:51:32.023Z,44.5
2017-09-02T21:56:37.096Z,44.5
2017-09-02T22:01:42.862Z,44.6
2017-09-02T22:06:48.289Z,44.6
2017-09-02T22:11:53.040Z,44.7
2017-09-02T22:16:58.461Z,44.7
2017-09-02T22:22:03.876Z,44.8
2017-09-02T22:27:09.279Z,44.8
2017-09-02T22:32:14.359Z,44.8
2017-09-02T22:37:20.113Z,44.8
2017-09-02T22:42:25.188Z,44.8
2017-09-02T22:47:30.463Z,44.8
2017-09-02T22:52:35.889Z,44.9
2017-09-02T22:57:41.313Z,44.9
2017-09-02T23:02:47.057Z,44.9
2017-09-02T23:07:52.474Z,45
2017-09-02T23:12:57.885Z,45
2017-09-02T23:18:03.625Z,45
2017-09-02T23:23:09.373Z,45.1
2017-09-02T23:28:14.470Z,45.3
2017-09-02T23:33:19.873Z,45.4
2017-09-02T23:38:24.944Z,45.5
2017-09-02T23:43:29.684Z,45.5
2017-09-02T23:48:34.763Z,45.6
2017-09-02T23:53:40.840Z,45.7
2017-09-02T23:58:46.585Z,45.7
